Terminal Aerodrome Forecast
Issued by NWS

Home | Current Version | Previous Version | Text Only | Print | Product List | Glossary On
Versions: 1 2 3 4 5 6 7 8 9 10 11 12 13 14 15 16 17 18
171
FTUS41 KILN 132330
TAFLUK
TAF
KLUK 132330Z 1400/1424 VRB02KT P6SM SCT250
     FM140700 VRB02KT P6SM BKN200
     FM141200 11004KT P6SM OVC100
     FM141900 12007KT 5SM -SN BKN035 OVC050
     FM142100 12007KT 2SM -SN OVC018=

USA.gov is the U.S. government's official web portal to all federal, state and local government web resources and services.